Gabriella — OJHP — position and weather

sailwx.info

Track history (hours):
 
Tides and Currents Weather Stations Pressure Air Temp Water Temp Dewpoint Dewpoint Depression Visibility Wind Speed Wind Dir Waves Ship Positions

Gabriella

Last reported at 2014-Oct-24 16:11 UTC. Time now 2014-Oct-24 23:54 UTC.
Position N 59°28' E 018°26'.

Length 172 m; draft 6.5 m.

Type: Passenger vessel. MMSI: 230361000.

Date/timePositionNaut miles runAvg speedWind from/ knotsBaromVisibWave heightAir tempDewpointWater temp
2014-Oct-24 16:11N 59°28' E 018°26'7 9.8
2014-Oct-24 15:31N 59°22' E 018°27'1010.7
2014-Oct-24 14:34N 59°19' E 018°07'1 0.7
2014-Oct-24 13:31N 59°19' E 018°06'0 0.0
2014-Oct-24 12:28N 59°19' E 018°06'0 0.0
2014-Oct-24 11:22N 59°19' E 018°06'0 0.0
2014-Oct-24 10:31N 59°19' E 018°06'0 0.0
2014-Oct-24 09:28N 59°19' E 018°06'0 0.0
2014-Oct-24 08:31N 59°19' E 018°06'2 1.9
2014-Oct-24 07:34N 59°19' E 018°09'91 9.8
2014-Oct-23 22:14N 59°37' E 021°06'1217.2
2014-Oct-23 21:34N 59°34' E 021°28'5217.0
2014-Oct-23 18:31N 59°40' E 023°09'1717.3
2014-Oct-23 17:33N 59°44' E 023°41'1917.2
2014-Oct-23 16:28N 59°50' E 024°17'2915.1
2014-Oct-23 14:33N 60°10' E 024°58'23 2.6
2014-Oct-23 05:32N 59°52' E 024°29'1818.2
2014-Oct-23 04:34N 59°46' E 023°56'1818.3
2014-Oct-23 03:33N 59°42' E 023°20'3918.3
2014-Oct-23 01:25N 59°33' E 022°04'1518.1
2014-Oct-23 00:34N 59°33' E 021°34'9511.5
2014-Oct-22 16:15N 59°28' E 018°26'7 9.9
2014-Oct-22 15:33N 59°21' E 018°27'1010.3
2014-Oct-22 14:33N 59°19' E 018°07'1 0.7
2014-Oct-22 13:33N 59°19' E 018°06'0 0.0
2014-Oct-22 12:33N 59°19' E 018°06'0 0.0
2014-Oct-22 11:33N 59°19' E 018°06'0 0.0
2014-Oct-22 10:33N 59°19' E 018°06'0 0.0
2014-Oct-22 09:33N 59°19' E 018°06'0 0.0
2014-Oct-22 08:33N 59°19' E 018°06'2 2.0
2014-Oct-22 07:33N 59°19' E 018°10'90 9.7
2014-Oct-21 22:20N 59°38' E 021°03'1317.3
2014-Oct-21 21:33N 59°34' E 021°28'5417.2
2014-Oct-21 18:25N 59°39' E 023°14'1517.4
2014-Oct-21 17:33N 59°44' E 023°43'1917.4
2014-Oct-21 16:27N 59°49' E 024°20'4 0.4
2014-Oct-21 05:27N 59°51' E 024°28'1618.2
2014-Oct-21 04:33N 59°46' E 023°57'1818.2
2014-Oct-21 03:33N 59°42' E 023°22'3918.2
2014-Oct-21 01:25N 59°33' E 022°06'1518.0
2014-Oct-21 00:33N 59°33' E 021°36'9611.6
2014-Oct-20 16:13N 59°28' E 018°26'7 9.8
2014-Oct-20 15:32N 59°21' E 018°27'1010.3
2014-Oct-20 14:33N 59°19' E 018°08'1 0.8
2014-Oct-20 13:31N 59°19' E 018°06'0 0.0
2014-Oct-20 12:31N 59°19' E 018°06'0 0.0
2014-Oct-20 11:31N 59°19' E 018°06'0 0.0
2014-Oct-20 10:31N 59°19' E 018°06'0 0.0
2014-Oct-20 09:31N 59°19' E 018°06'0 0.0
2014-Oct-20 08:31N 59°19' E 018°06'2 2.1
2014-Oct-20 07:33N 59°19' E 018°10'90 9.8
2014-Oct-19 22:23N 59°38' E 021°03'1417.6
2014-Oct-19 21:33N 59°34' E 021°30'1717.3
2014-Oct-19 20:33N 59°33' E 022°04'3617.6
2014-Oct-19 18:31N 59°40' E 023°14'1717.6
2014-Oct-19 17:33N 59°44' E 023°47'1717.0
2014-Oct-19 16:32N 59°49' E 024°20'5 0.5
2014-Oct-19 05:28N 59°52' E 024°29'1718.1
2014-Oct-19 04:33N 59°47' E 023°58'1818.3
2014-Oct-19 03:33N 59°42' E 023°22'3918.3
2014-Oct-19 01:24N 59°33' E 022°07'1518.1
2014-Oct-19 00:33N 59°33' E 021°37'9711.6
2014-Oct-18 16:10N 59°27' E 018°26'6 6.2
2014-Oct-18 15:10N 59°22' E 018°19'711.1
2014-Oct-18 14:33N 59°19' E 018°07'1 0.6
2014-Oct-18 13:29N 59°19' E 018°06'0 0.0
2014-Oct-18 12:32N 59°19' E 018°06'0 0.0
2014-Oct-18 11:26N 59°19' E 018°06'0 0.0
2014-Oct-18 10:32N 59°19' E 018°06'0 0.0
2014-Oct-18 09:32N 59°19' E 018°06'0 0.0
2014-Oct-18 08:32N 59°19' E 018°06'2 2.2
2014-Oct-18 07:32N 59°19' E 018°10'91 9.8
2014-Oct-17 22:16N 59°37' E 021°05'1217.5
2014-Oct-17 21:33N 59°34' E 021°29'5317.0
2014-Oct-17 18:26N 59°39' E 023°14'1517.3
2014-Oct-17 17:33N 59°44' E 023°43'2017.5
2014-Oct-17 16:26N 59°49' E 024°20'3 0.3
2014-Oct-17 05:22N 59°51' E 024°26'1518.0
2014-Oct-17 04:33N 59°46' E 023°58'1818.2
2014-Oct-17 03:33N 59°42' E 023°23'4018.2
2014-Oct-17 01:21N 59°33' E 022°05'1418.0
2014-Oct-17 00:33N 59°33' E 021°37'9711.8
2014-Oct-16 16:19N 59°27' E 018°26'6 6.0
2014-Oct-16 15:19N 59°22' E 018°19'7 9.7
2014-Oct-16 14:33N 59°19' E 018°06'0 0.0
2014-Oct-16 13:33N 59°19' E 018°06'0 0.0
2014-Oct-16 12:33N 59°19' E 018°06'0 0.0
2014-Oct-16 11:33N 59°19' E 018°06'0 0.0
2014-Oct-16 10:33N 59°19' E 018°06'0 0.0
2014-Oct-16 09:30N 59°19' E 018°06'0 0.0
2014-Oct-16 08:33N 59°19' E 018°06'93 9.0
2014-Oct-15 22:13N 59°37' E 021°05'1217.8
2014-Oct-15 21:34N 59°34' E 021°27'5417.6
2014-Oct-15 18:29N 59°39' E 023°14'1617.3
2014-Oct-15 17:34N 59°44' E 023°44'1817.4
2014-Oct-15 16:31N 59°49' E 024°19'2117.4
2014-Oct-15 15:17N 60°00' E 024°55'16 1.6
2014-Oct-15 05:29N 59°52' E 024°29'1718.0
2014-Oct-15 04:33N 59°46' E 023°57'1818.1
2014-Oct-15 03:33N 59°42' E 023°22'4018.0
2014-Oct-15 01:18N 59°33' E 022°04'1317.9
2014-Oct-15 00:33N 59°33' E 021°38'  
Track history (hours):
 
Tides and Currents Weather Stations Pressure Air Temp Water Temp Dewpoint Dewpoint Depression Visibility Wind Speed Wind Dir Waves Ship Positions

Gabriella

Last reported at 2014-Oct-24 16:11 UTC. Time now 2014-Oct-24 23:54 UTC.
Position N 59°28' E 018°26'.

Length 172 m; draft 6.5 m.

Type: Passenger vessel. MMSI: 230361000.

Date/timePositionNaut miles runAvg speedWind from/ knotsBaromVisibWave heightAir tempDewpointWater temp
2014-Oct-24 16:11N 59°28' E 018°26'7 9.8
2014-Oct-24 15:31N 59°22' E 018°27'1010.7
2014-Oct-24 14:34N 59°19' E 018°07'1 0.7
2014-Oct-24 13:31N 59°19' E 018°06'0 0.0
2014-Oct-24 12:28N 59°19' E 018°06'0 0.0
2014-Oct-24 11:22N 59°19' E 018°06'0 0.0
2014-Oct-24 10:31N 59°19' E 018°06'0 0.0
2014-Oct-24 09:28N 59°19' E 018°06'0 0.0
2014-Oct-24 08:31N 59°19' E 018°06'2 1.9
2014-Oct-24 07:34N 59°19' E 018°09'91 9.8
2014-Oct-23 22:14N 59°37' E 021°06'1217.2
2014-Oct-23 21:34N 59°34' E 021°28'5217.0
2014-Oct-23 18:31N 59°40' E 023°09'1717.3
2014-Oct-23 17:33N 59°44' E 023°41'1917.2
2014-Oct-23 16:28N 59°50' E 024°17'2915.1
2014-Oct-23 14:33N 60°10' E 024°58'23 2.6
2014-Oct-23 05:32N 59°52' E 024°29'1818.2
2014-Oct-23 04:34N 59°46' E 023°56'1818.3
2014-Oct-23 03:33N 59°42' E 023°20'3918.3
2014-Oct-23 01:25N 59°33' E 022°04'1518.1
2014-Oct-23 00:34N 59°33' E 021°34'9511.5
2014-Oct-22 16:15N 59°28' E 018°26'7 9.9
2014-Oct-22 15:33N 59°21' E 018°27'1010.3
2014-Oct-22 14:33N 59°19' E 018°07'1 0.7
2014-Oct-22 13:33N 59°19' E 018°06'0 0.0
2014-Oct-22 12:33N 59°19' E 018°06'0 0.0
2014-Oct-22 11:33N 59°19' E 018°06'0 0.0
2014-Oct-22 10:33N 59°19' E 018°06'0 0.0
2014-Oct-22 09:33N 59°19' E 018°06'0 0.0
2014-Oct-22 08:33N 59°19' E 018°06'2 2.0
2014-Oct-22 07:33N 59°19' E 018°10'90 9.7
2014-Oct-21 22:20N 59°38' E 021°03'1317.3
2014-Oct-21 21:33N 59°34' E 021°28'5417.2
2014-Oct-21 18:25N 59°39' E 023°14'1517.4
2014-Oct-21 17:33N 59°44' E 023°43'1917.4
2014-Oct-21 16:27N 59°49' E 024°20'4 0.4
2014-Oct-21 05:27N 59°51' E 024°28'1618.2
2014-Oct-21 04:33N 59°46' E 023°57'1818.2
2014-Oct-21 03:33N 59°42' E 023°22'3918.2
2014-Oct-21 01:25N 59°33' E 022°06'1518.0
2014-Oct-21 00:33N 59°33' E 021°36'9611.6
2014-Oct-20 16:13N 59°28' E 018°26'7 9.8
2014-Oct-20 15:32N 59°21' E 018°27'1010.3
2014-Oct-20 14:33N 59°19' E 018°08'1 0.8
2014-Oct-20 13:31N 59°19' E 018°06'0 0.0
2014-Oct-20 12:31N 59°19' E 018°06'0 0.0
2014-Oct-20 11:31N 59°19' E 018°06'0 0.0
2014-Oct-20 10:31N 59°19' E 018°06'0 0.0
2014-Oct-20 09:31N 59°19' E 018°06'0 0.0
2014-Oct-20 08:31N 59°19' E 018°06'2 2.1
2014-Oct-20 07:33N 59°19' E 018°10'90 9.8
2014-Oct-19 22:23N 59°38' E 021°03'1417.6
2014-Oct-19 21:33N 59°34' E 021°30'1717.3
2014-Oct-19 20:33N 59°33' E 022°04'3617.6
2014-Oct-19 18:31N 59°40' E 023°14'1717.6
2014-Oct-19 17:33N 59°44' E 023°47'1717.0
2014-Oct-19 16:32N 59°49' E 024°20'5 0.5
2014-Oct-19 05:28N 59°52' E 024°29'1718.1
2014-Oct-19 04:33N 59°47' E 023°58'1818.3
2014-Oct-19 03:33N 59°42' E 023°22'3918.3
2014-Oct-19 01:24N 59°33' E 022°07'1518.1
2014-Oct-19 00:33N 59°33' E 021°37'9711.6
2014-Oct-18 16:10N 59°27' E 018°26'6 6.2
2014-Oct-18 15:10N 59°22' E 018°19'711.1
2014-Oct-18 14:33N 59°19' E 018°07'1 0.6
2014-Oct-18 13:29N 59°19' E 018°06'0 0.0
2014-Oct-18 12:32N 59°19' E 018°06'0 0.0
2014-Oct-18 11:26N 59°19' E 018°06'0 0.0
2014-Oct-18 10:32N 59°19' E 018°06'0 0.0
2014-Oct-18 09:32N 59°19' E 018°06'0 0.0
2014-Oct-18 08:32N 59°19' E 018°06'2 2.2
2014-Oct-18 07:32N 59°19' E 018°10'91 9.8
2014-Oct-17 22:16N 59°37' E 021°05'1217.5
2014-Oct-17 21:33N 59°34' E 021°29'5317.0
2014-Oct-17 18:26N 59°39' E 023°14'1517.3
2014-Oct-17 17:33N 59°44' E 023°43'2017.5
2014-Oct-17 16:26N 59°49' E 024°20'3 0.3
2014-Oct-17 05:22N 59°51' E 024°26'1518.0
2014-Oct-17 04:33N 59°46' E 023°58'1818.2
2014-Oct-17 03:33N 59°42' E 023°23'4018.2
2014-Oct-17 01:21N 59°33' E 022°05'1418.0
2014-Oct-17 00:33N 59°33' E 021°37'9711.8
2014-Oct-16 16:19N 59°27' E 018°26'6 6.0
2014-Oct-16 15:19N 59°22' E 018°19'7 9.7
2014-Oct-16 14:33N 59°19' E 018°06'0 0.0
2014-Oct-16 13:33N 59°19' E 018°06'0 0.0
2014-Oct-16 12:33N 59°19' E 018°06'0 0.0
2014-Oct-16 11:33N 59°19' E 018°06'0 0.0
2014-Oct-16 10:33N 59°19' E 018°06'0 0.0
2014-Oct-16 09:30N 59°19' E 018°06'0 0.0
2014-Oct-16 08:33N 59°19' E 018°06'93 9.0
2014-Oct-15 22:13N 59°37' E 021°05'1217.8
2014-Oct-15 21:34N 59°34' E 021°27'5417.6
2014-Oct-15 18:29N 59°39' E 023°14'1617.3
2014-Oct-15 17:34N 59°44' E 023°44'1817.4
2014-Oct-15 16:31N 59°49' E 024°19'2117.4
2014-Oct-15 15:17N 60°00' E 024°55'16 1.6
2014-Oct-15 05:29N 59°52' E 024°29'1718.0
2014-Oct-15 04:33N 59°46' E 023°57'1818.1
2014-Oct-15 03:33N 59°42' E 023°22'4018.0
2014-Oct-15 01:18N 59°33' E 022°04'1317.9
2014-Oct-15 00:33N 59°33' E 021°38'  

Dump ship's entire track history